Hlavní strana
METAR-TAF:

METAR-TAF

Letiště :

Östersund-Frösön, Švédsko

zeměpisná šířka: 63-11N, zeměpisná délka: 014-30E, výška: 376 m

Aktuální stav počasí

Zpráva byla vytvořena před 16 minutami, v 14:20 UTC
Severozápadní vítr 14 kt
Teplota 0°C
Vlhkost vzduchu 64%
Tlak 1014 hPa
Viditelnost 10 km a více
Oblačno až skoro zataženo ve výšce 3300 ft

METAR: ESNZ 031420Z 31014KT 9999 BKN033 M00/M06 Q1014

Čas: 15:36 (14:36 UTC)

Předpověď počasí

Zpráva byla vytvořena před 1 hodinou a 46 minutami, v 12:50 UTC
Předpověď platná od 03 v 14 UTC do 03 v 20 UTC
Severozápadní vítr 15 kt s nárazy do 28 kt
Viditelnost 10 km a více
Oblačno až skoro zataženo ve výšce 2500 ft
Pravděpodobnost 40%
od 03 v 18 UTC do 03 v 20 UTC
Viditelnost: 4000 m
Oblačno až skoro zataženo ve výšce 2000 ft, Cumulonimbus.
slabé sněhové přeháňky

TAF: ESNZ 031250Z 0314/0320 31015G28KT 9999 BKN025 PROB40 0318/0320 4000 -SHSN BKN020CB

Stav a předpovědi počasí z více než 4 000 letišť (zprávy METAR a TAF).

Červené a žluté tečky na mapě představují dostupné meteorologické stanice.

Když kurzor umístíte na tečku, zobrazí se název stanice.

Pak kliknutím zobrazíte stav a předpověď počasí.

Chcete-li změnit mapu, kliknutím na zelené tlačítko se znaménkem +mapu přiblížíte, kliknutím na zelené tlačítko se znaménkem – mapu oddálíte a kliknutím na zelené šipky přejdete na sousední mapy.


METAR-TAF: